Flight Track Log - Related Links

Times and Time Zones

All times are in EDT time to prevent confusion due to time zone crossing. See the AWI53A flight status page for this flight to view local times or setup timezone preferences in your user account.

Time Position Orientation Groundspeed Altitude Reporting Facility
EDT Latitude Longitude Course Direction KTS MPH feet Rate Location/Type
Mon 09:10:01 AM 38.8833 -77.0667 171° South 166 191 1,800  Level Potomac TRACON
Mon 09:11:01 AM 38.9167 -77.1167 311° West 215 247 4,200 2,250 Climbing Potomac TRACON
Mon 09:12:01 AM 38.9667 -77.1667 322° Northwest 272 313 6,300 2,368 Climbing Potomac TRACON
Mon 09:12:55 AM 39.0333 -77.2000 339° North 285 328 8,700 2,368 Climbing Potomac TRACON
Mon 09:13:55 AM 39.0667 -77.1167 63° Northeast 310 357 10,800 1,722 Climbing Potomac TRACON
Mon 09:14:50 AM 39.0167 -77.0333 128° Southeast 343 395 12,000 1,565 Climbing Potomac TRACON
Mon 09:15:00 AM 38.4653 -76.7031 171° South  Level FlightAware Approximate
Mon 09:15:50 AM 38.9500 -76.9500 136° Southeast 354 407 13,800  Level Potomac TRACON
Mon 09:17:54 AM 38.7631 -76.8483 157° South 395 455 17,200 1,467 Climbing Washington Center
Mon 09:18:54 AM 38.6636 -76.7908 156° South 390 449 18,300 650 Climbing Washington Center
Mon 09:19:54 AM 38.5619 -76.7333 156° South 395 455 18,500 500 Climbing Washington Center
Mon 09:20:54 AM 38.4453 -76.7131 172° South 405 466 19,300 1,250 Climbing Washington Center
Mon 09:21:54 AM 38.3308 -76.6981 174° South 412 474 21,000 1,650 Climbing Washington Center
Mon 09:22:54 AM 38.2119 -76.6778 172° South 401 461 22,600 1,000 Climbing Washington Center
Mon 09:23:54 AM 38.1017 -76.6658 175° South 401 461 23,000 200 Climbing Washington Center
Mon 09:24:54 AM 37.9872 -76.6508 174° South 406 467 23,000  Level Washington Center
Mon 09:25:54 AM 37.8722 -76.6572 183° South 406 467 23,000 500 Level Washington Center
Mon 09:26:54 AM 37.7658 -76.6714 186° South 406 467 24,000 1,091 Climbing Washington Center
Mon 09:27:55 AM 37.6594 -76.6831 185° South 396 456 25,200 992 Climbing Washington Center
Mon 09:28:55 AM 37.5550 -76.6972 186° South 390 449 26,000 403 Climbing Washington Center
Mon 09:29:54 AM 37.4525 -76.7142 187° South 384 442 26,000  Level Washington Center
Mon 09:30:55 AM 37.3542 -76.7492 196° South 374 430 26,000  Level Washington Center
Mon 09:31:54 AM 37.2661 -76.7869 199° South 374 430 26,000  Level Washington Center
Mon 09:32:55 AM 37.1658 -76.8272 198° South 380 437 26,000  Level Washington Center
Mon 09:33:54 AM 37.0672 -76.8672 198° South 380 437 26,000  Level Washington Center
Mon 09:34:55 AM 36.9708 -76.9072 198° South 380 437 26,000  Level Washington Center
Mon 09:35:54 AM 36.8722 -76.9472 198° South 375 432 26,000  Level Washington Center
Mon 09:36:55 AM 36.7739 -76.9894 199° South 375 432 26,000  Level Washington Center
Mon 09:37:55 AM 36.6836 -77.0422 205° Southwest 370 426 26,000  Level Washington Center
Mon 09:38:54 AM 36.6011 -77.1158 216° Southwest 364 419 26,000  Level Washington Center
Mon 09:39:54 AM 36.5208 -77.1944 218° Southwest 369 425 26,000  Level Washington Center
Mon 09:40:54 AM 36.4406 -77.2728 218° Southwest 375 432 26,000  Level Washington Center
Mon 09:41:55 AM 36.3603 -77.3458 216° Southwest 369 425 26,000 -298 Level Washington Center
Mon 09:42:55 AM 36.2778 -77.4239 217° Southwest 375 432 25,400 -800 Descending Washington Center
Mon 09:43:55 AM 36.1972 -77.5017 218° Southwest 375 432 24,400 -706 Descending Washington Center
Mon 09:44:54 AM 36.1125 -77.5794 217° Southwest 375 432 24,000 -202 Descending Washington Center
Mon 09:45:54 AM 36.0278 -77.6594 217° Southwest 375 432 24,000  Level Washington Center
Mon 09:46:55 AM 35.9386 -77.7367 215° Southwest 380 437 24,000  Level Washington Center
Mon 09:47:55 AM 35.8497 -77.8061 212° Southwest 385 443 24,000  Level Washington Center
Mon 09:48:55 AM 35.7608 -77.8753 212° Southwest 385 443 24,000  Level Washington Center
Mon 09:49:54 AM 35.6719 -77.9444 212° Southwest 385 443 24,000  Level Washington Center
Mon 09:50:54 AM 35.5828 -78.0131 212° Southwest 380 437 24,000 -200 Level Washington Center
Mon 09:51:54 AM 35.4917 -78.0819 212° Southwest 380 437 23,600 -496 Descending Washington Center
Mon 09:52:55 AM 35.4006 -78.1556 213° Southwest 386 444 23,000 -298 Descending Washington Center
Mon 09:53:55 AM 35.3050 -78.2289 212° Southwest 398 458 23,000  Level Washington Center
Mon 09:54:55 AM 35.2136 -78.2994 212° Southwest 398 458 23,000  Level Washington Center
Mon 09:55:55 AM 35.1222 -78.3700 212° Southwest 393 452 23,000  Level Washington Center
Mon 09:56:54 AM 35.0331 -78.4381 212° Southwest 393 452 23,000  Level Washington Center
Mon 09:57:54 AM 34.9436 -78.5083 213° Southwest 393 452 23,000 -380 Level Washington Center
Mon 09:59:32 AM 34.7947 -78.6228 212° Southwest 397 457 22,000 -380 Descending Jacksonville Center
Mon 10:00:32 AM 34.7050 -78.6878 211° Southwest 397 457 22,000  Level Jacksonville Center
Mon 10:01:32 AM 34.6156 -78.7578 213° Southwest 397 457 22,000  Level Jacksonville Center
Mon 10:02:32 AM 34.5261 -78.8253 212° Southwest 392 451 22,000  Level Jacksonville Center
Mon 10:03:32 AM 34.4386 -78.8947 213° Southwest 387 445 22,000  Level Jacksonville Center
Mon 10:04:32 AM 34.3511 -78.9642 213° Southwest 382 440 22,000  Level Jacksonville Center
Mon 10:05:32 AM 34.2592 -79.0261 209° Southwest 382 440 22,000  Level Jacksonville Center
Mon 10:06:32 AM 34.1603 -79.0706 200° South 377 434 22,000  Level Jacksonville Center
Mon 10:07:32 AM 34.0617 -79.1175 202° Southwest 382 440 22,000 -250 Level Jacksonville Center
Mon 10:08:32 AM 33.9689 -79.1592 200° South 376 433 21,500 -900 Descending Jacksonville Center
Mon 10:09:32 AM 33.8886 -79.1950 200° South 344 396 20,200 -1,350 Descending Jacksonville Center
Mon 10:10:32 AM 33.8083 -79.2283 199° South 316 364 18,800 -1,050 Descending Jacksonville Center
Mon 10:11:32 AM 33.7283 -79.2817 209° Southwest 316 364 18,100 -1,150 Descending Jacksonville Center
Mon 10:12:32 AM 33.6528 -79.3397 213° Southwest 311 358 16,500 -1,500 Descending Jacksonville Center
Mon 10:13:32 AM 33.5772 -79.3950 211° Southwest 311 358 15,100 -1,400 Descending Jacksonville Center
Mon 10:14:32 AM 33.5058 -79.4528 214° Southwest 316 364 13,700 -1,400 Descending Jacksonville Center
Mon 10:15:32 AM 33.4236 -79.5081 209° Southwest 322 371 12,300 -1,339 Descending Jacksonville Center
Mon 10:16:33 AM 33.3461 -79.5708 214° Southwest 332 382 11,000 -650 Descending Jacksonville Center
Mon 10:17:32 AM 33.2744 -79.6231 211° Southwest 332 382 11,000 -403 Level Jacksonville Center
Mon 10:18:32 AM 33.2028 -79.6753 211° Southwest 322 371 10,200 -1,000 Descending Jacksonville Center
Mon 10:19:32 AM 33.1372 -79.7247 212° Southwest 303 349 9,000 -1,350 Descending Jacksonville Center
Mon 10:20:32 AM 33.0717 -79.7717 211° Southwest 291 335 7,500 -1,550 Descending Jacksonville Center
Mon 10:21:32 AM 33.0039 -79.8236 213° Southwest 286 329 5,900 -1,250 Descending Jacksonville Center
Mon 10:22:32 AM 32.9294 -79.8436 193° South 286 329 5,000 -1,100 Descending Jacksonville Center
Mon 10:23:32 AM 32.8503 -79.8586 189° South 281 323 3,700 -1,100 Descending Jacksonville Center
Mon 10:24:32 AM 32.8164 -79.9239 238° Southwest 254 292 2,800 -700 Descending Jacksonville Center
Mon 10:25:32 AM 32.7825 -79.9917 239° Southwest 246 283 2,300 -500 Descending Jacksonville Center
Mon 10:27:00 AM 32.8792 -80.0323 348° North  Level FlightAware Approximate
Mon 10:34:00 AM 32.8833 -80.0333 348° North  Level FlightAware Approximate
Mon 10:35:00 AM 32.8986 -80.0405 348° North  Level Estimated
Mon 10:36:00 AM 32.8986 -80.0405 348° North  Level Estimated
Mon 10:37:00 AM 32.8986 -80.0405 348° North  Level Estimated
Mon 10:38:00 AM 32.8986 -80.0405 348° North  Level Estimated

Login

Don't have an account? Register now (free) for customized features, flight alerts, and more!